createdAt,value
2024-01-16T00:00:35.897Z,15.4
2024-01-16T00:02:35.476Z,14.7
2024-01-16T00:04:35.049Z,17.3
2024-01-16T00:06:34.740Z,15.9
2024-01-16T00:08:34.377Z,17.4
2024-01-16T00:10:33.967Z,15.5
2024-01-16T00:12:33.584Z,14.6
2024-01-16T00:14:33.274Z,17.8
2024-01-16T00:16:32.911Z,16.2
2024-01-16T00:18:32.867Z,16.4
2024-01-16T00:20:32.246Z,15.2
2024-01-16T00:22:31.832Z,17
2024-01-16T00:24:31.488Z,15.6
2024-01-16T00:26:31.731Z,18
2024-01-16T00:28:30.841Z,17.6
2024-01-16T00:30:30.434Z,14.7
2024-01-16T00:32:30.172Z,19.4
2024-01-16T00:34:29.730Z,15.5
2024-01-16T00:36:29.349Z,15.7
2024-01-16T00:38:29.058Z,13.8
2024-01-16T00:40:28.629Z,12.8
2024-01-16T00:42:28.275Z,10.4
2024-01-16T00:44:28.005Z,12.7
2024-01-16T00:46:27.582Z,10.4
2024-01-16T00:48:27.419Z,10.9
2024-01-16T00:50:26.925Z,11
2024-01-16T00:52:26.572Z,13.1
2024-01-16T00:54:26.227Z,12.2
2024-01-16T00:56:25.899Z,11.4
2024-01-16T00:58:25.585Z,9.3
2024-01-16T01:00:25.122Z,10.5
2024-01-16T01:02:24.816Z,11.4
2024-01-16T01:04:24.467Z,14
2024-01-16T01:06:24.161Z,10.8
2024-01-16T01:08:23.696Z,13
2024-01-16T01:10:23.428Z,11.3
2024-01-16T01:12:23.015Z,9
2024-01-16T01:14:22.725Z,9.1
2024-01-16T01:16:22.313Z,8.7
2024-01-16T01:18:22.106Z,9.5
2024-01-16T01:20:21.673Z,11.6
2024-01-16T01:22:21.236Z,9.6
2024-01-16T01:24:20.843Z,10.6
2024-01-16T01:26:20.634Z,10.1
2024-01-16T01:28:20.171Z,7.9
2024-01-16T01:30:19.825Z,8.4
2024-01-16T01:32:19.411Z,11.1
2024-01-16T01:34:19.218Z,10.4
2024-01-16T01:36:18.762Z,7
2024-01-16T01:38:18.344Z,8.6
2024-01-16T01:40:17.977Z,10.6
2024-01-16T01:42:17.602Z,9.8
2024-01-16T01:44:17.602Z,9.4
2024-01-16T01:46:16.900Z,8.8
2024-01-16T01:48:16.653Z,9.1
2024-01-16T01:50:16.177Z,7.4
2024-01-16T01:52:15.816Z,7.6
2024-01-16T01:54:15.380Z,5.6
2024-01-16T01:56:15.259Z,6
2024-01-16T01:58:14.719Z,6.6
2024-01-16T02:00:14.337Z,4.4
2024-01-16T02:02:14.026Z,6.4
2024-01-16T02:04:13.856Z,6
2024-01-16T02:06:13.504Z,5.8
2024-01-16T02:08:12.973Z,6.8
2024-01-16T02:10:12.601Z,5.3
2024-01-16T02:12:12.197Z,6.2
2024-01-16T02:14:11.930Z,7.2
2024-01-16T02:16:11.434Z,7.4
2024-01-16T02:18:11.169Z,6.9
2024-01-16T02:20:10.809Z,7.4
2024-01-16T02:22:10.407Z,6.8
2024-01-16T02:24:10.080Z,8.2
2024-01-16T02:26:09.822Z,8.9
2024-01-16T02:28:09.399Z,9.5
2024-01-16T02:30:09.049Z,9.1
2024-01-16T02:32:08.652Z,11
2024-01-16T02:34:08.449Z,10.6
2024-01-16T02:36:07.952Z,10
2024-01-16T02:38:07.654Z,7.4
2024-01-16T02:40:07.370Z,9.6
2024-01-16T02:42:06.967Z,10.2
2024-01-16T02:44:06.606Z,9.9
2024-01-16T02:46:06.284Z,9.1
2024-01-16T02:48:05.948Z,10.3
2024-01-16T02:50:05.608Z,10.1
2024-01-16T02:52:05.169Z,10.1
2024-01-16T02:54:04.793Z,8.8
2024-01-16T02:56:04.526Z,6.9
2024-01-16T02:58:04.102Z,7.9
2024-01-16T03:00:03.708Z,8.7
2024-01-16T03:02:03.478Z,7.9
2024-01-16T03:04:03.029Z,6.2
2024-01-16T03:06:02.877Z,6.1
2024-01-16T03:08:02.310Z,7.5
2024-01-16T03:10:01.984Z,8.3
2024-01-16T03:12:01.620Z,8.4
2024-01-16T03:14:01.249Z,7.5
2024-01-16T03:16:00.944Z,6.6
2024-01-16T03:18:00.713Z,10.5
2024-01-16T03:20:00.237Z,11.8
2024-01-16T03:21:59.871Z,9.8
2024-01-16T03:23:59.476Z,26.6
2024-01-16T03:25:59.124Z,12.3
2024-01-16T03:27:58.780Z,12.9
2024-01-16T03:29:58.428Z,14.4
2024-01-16T03:31:58.080Z,25.5
2024-01-16T03:33:57.754Z,15.5
2024-01-16T03:35:57.473Z,8
2024-01-16T03:37:57.006Z,13.1
2024-01-16T03:39:56.637Z,9.8
2024-01-16T03:41:56.340Z,13.2
2024-01-16T03:43:55.969Z,28.8
2024-01-16T03:45:55.663Z,9.8
2024-01-16T03:47:55.371Z,19.5
2024-01-16T03:49:54.939Z,13.3
2024-01-16T03:51:54.548Z,9.5
2024-01-16T03:53:54.195Z,10.8
2024-01-16T03:55:53.821Z,5.8
2024-01-16T03:57:53.570Z,13.1
2024-01-16T03:59:53.247Z,15.5
2024-01-16T04:00:50.816Z,15.5
2024-01-16T04:01:31.003Z,15.5
2024-01-16T04:02:11.354Z,8.6
2024-01-16T04:03:52.540Z,11.4
2024-01-16T04:05:52.320Z,8.3
2024-01-16T04:07:51.823Z,8
2024-01-16T04:09:51.435Z,6.5
2024-01-16T04:11:51.227Z,7.7
2024-01-16T04:13:50.711Z,8.8
2024-01-16T04:15:50.456Z,11.6
2024-01-16T04:17:50.127Z,10
2024-01-16T04:19:49.764Z,10.2
2024-01-16T04:21:49.419Z,9.6
2024-01-16T04:23:49.083Z,12.8
2024-01-16T04:25:48.707Z,14.3
2024-01-16T04:27:48.398Z,13.3
2024-01-16T04:29:48.254Z,15.1
2024-01-16T04:31:47.721Z,19.8
2024-01-16T04:33:47.381Z,15.1
2024-01-16T04:35:47.044Z,14.5
2024-01-16T04:37:46.603Z,12.8
2024-01-16T04:39:46.237Z,9.3
2024-01-16T04:41:45.988Z,9.7
2024-01-16T04:43:45.547Z,11
2024-01-16T04:45:45.223Z,11.9
2024-01-16T04:47:45.026Z,11.6
2024-01-16T04:49:44.506Z,11.1
2024-01-16T04:51:44.184Z,7.8
2024-01-16T04:53:43.865Z,16.7
2024-01-16T04:55:43.512Z,10.4
2024-01-16T04:57:43.170Z,16.5
2024-01-16T04:59:42.902Z,11.3
2024-01-16T05:01:42.468Z,11.7
2024-01-16T05:03:42.176Z,10.8
2024-01-16T05:05:41.733Z,8.9
2024-01-16T05:07:41.397Z,9.6
2024-01-16T05:09:40.993Z,8.8
2024-01-16T05:11:40.682Z,13
2024-01-16T05:13:40.304Z,10.6
2024-01-16T05:15:39.941Z,10.1
2024-01-16T05:17:39.784Z,9.2
2024-01-16T05:19:39.336Z,9.5
2024-01-16T05:21:38.910Z,15
2024-01-16T05:23:38.564Z,11.2
2024-01-16T05:25:38.180Z,11.7
2024-01-16T05:27:37.847Z,8.9
2024-01-16T05:29:38.097Z,11.4
2024-01-16T05:31:37.064Z,10.2
2024-01-16T05:33:36.801Z,12.3
2024-01-16T05:35:36.417Z,10.4
2024-01-16T05:37:35.992Z,11
2024-01-16T05:39:35.649Z,10.2
2024-01-16T05:41:35.380Z,9.4
2024-01-16T05:43:34.962Z,11.9
2024-01-16T05:45:34.678Z,12.8
2024-01-16T05:47:34.329Z,13
2024-01-16T05:49:34.149Z,12
2024-01-16T05:51:33.589Z,11.4
2024-01-16T05:53:33.235Z,11.1
2024-01-16T05:55:32.875Z,14.4
2024-01-16T05:57:32.493Z,12.6
2024-01-16T05:59:32.197Z,15
2024-01-16T06:01:31.840Z,13.3
2024-01-16T06:03:31.412Z,17.8
2024-01-16T06:05:31.101Z,15.5
2024-01-16T06:07:30.729Z,17.8
2024-01-16T06:09:30.338Z,17.6
2024-01-16T06:11:30.088Z,19.2
2024-01-16T06:13:29.667Z,15.4
2024-01-16T06:15:29.267Z,14.7
2024-01-16T06:17:29.106Z,19.3
2024-01-16T06:19:28.601Z,21.3
2024-01-16T06:21:28.201Z,21.5
2024-01-16T06:23:27.903Z,17.8
2024-01-16T06:25:27.468Z,14.7
2024-01-16T06:27:27.151Z,15.5
2024-01-16T06:29:32.043Z,17.4
2024-01-16T06:31:26.461Z,19.3
2024-01-16T06:33:26.247Z,20.9
2024-01-16T06:35:25.716Z,17.3
2024-01-16T06:37:25.302Z,17.3
2024-01-16T06:39:24.966Z,15.5
2024-01-16T06:41:24.606Z,19.9
2024-01-16T06:43:24.198Z,23.5
2024-01-16T06:45:23.860Z,24.2
2024-01-16T06:47:23.585Z,19.6
2024-01-16T06:49:23.221Z,21
2024-01-16T06:51:22.764Z,22.6
2024-01-16T06:53:22.447Z,21.1
2024-01-16T06:55:22.084Z,16.7
2024-01-16T06:57:21.696Z,19.2
2024-01-16T06:59:21.374Z,18.8
2024-01-16T07:01:20.965Z,17.7
2024-01-16T07:03:20.568Z,17.4
2024-01-16T07:05:20.384Z,20.3
2024-01-16T07:07:19.872Z,19.5
2024-01-16T07:09:19.524Z,16.2
2024-01-16T07:11:19.966Z,14.3
2024-01-16T07:13:18.823Z,17.7
2024-01-16T07:15:18.423Z,18
2024-01-16T07:17:18.051Z,15.8
2024-01-16T07:19:17.677Z,16.6
2024-01-16T07:21:17.294Z,17.4
2024-01-16T07:23:16.945Z,13.3
2024-01-16T07:25:16.515Z,18.4
2024-01-16T07:27:16.195Z,21.9
2024-01-16T07:29:15.835Z,20.5
2024-01-16T07:31:15.410Z,19
2024-01-16T07:33:15.166Z,19
2024-01-16T07:35:14.825Z,18.3
2024-01-16T07:37:14.314Z,16.8
2024-01-16T07:39:13.953Z,19.3
2024-01-16T07:41:13.657Z,15.1
2024-01-16T07:43:13.255Z,21.4
2024-01-16T07:45:12.889Z,21.6
2024-01-16T07:47:12.557Z,24.6
2024-01-16T07:49:12.178Z,27.4
2024-01-16T07:51:11.821Z,31.1
2024-01-16T07:53:11.542Z,22.2
2024-01-16T07:55:11.103Z,27.1
2024-01-16T07:57:10.717Z,21
2024-01-16T07:59:10.462Z,20.4
2024-01-16T08:01:10.072Z,22.6
2024-01-16T08:03:09.733Z,21.7
2024-01-16T08:05:09.419Z,20.2
2024-01-16T08:07:08.896Z,15.6
2024-01-16T08:09:08.565Z,18.2
2024-01-16T08:11:08.267Z,14.5
2024-01-16T08:13:07.824Z,14.1
2024-01-16T08:15:07.517Z,18.6
2024-01-16T08:17:07.168Z,13.8
2024-01-16T08:19:06.809Z,16.9
2024-01-16T08:21:06.396Z,17.4
2024-01-16T08:23:06.064Z,20
2024-01-16T08:25:05.705Z,20.4
2024-01-16T08:27:05.385Z,17.3
2024-01-16T08:29:04.975Z,17.1
2024-01-16T08:31:04.673Z,19.2
2024-01-16T08:33:04.396Z,17.6
2024-01-16T08:35:04.115Z,14.2
2024-01-16T08:37:03.556Z,12.7
2024-01-16T08:39:03.211Z,10.4
2024-01-16T08:41:02.847Z,10.4
2024-01-16T08:43:02.543Z,13.6
2024-01-16T08:45:02.247Z,9.6
2024-01-16T08:47:01.773Z,10.7
2024-01-16T08:49:01.629Z,7.8
2024-01-16T08:51:02.050Z,11.9
2024-01-16T08:53:00.740Z,12.9
2024-01-16T08:55:00.387Z,14.9
2024-01-16T08:57:00.060Z,12.6
2024-01-16T08:58:59.630Z,10.8
2024-01-16T09:00:59.283Z,11.2
2024-01-16T09:02:59.822Z,14.8
2024-01-16T09:04:58.651Z,14.1
2024-01-16T09:06:58.292Z,17.6
2024-01-16T09:08:57.870Z,11.8
2024-01-16T09:10:57.517Z,10.7
2024-01-16T09:12:57.097Z,18.3
2024-01-16T09:14:56.813Z,35.1
2024-01-16T09:16:56.460Z,25.2
2024-01-16T09:18:56.113Z,33.6
2024-01-16T09:20:55.889Z,96.4
2024-01-16T09:22:55.319Z,38.6
2024-01-16T09:24:54.945Z,16.3
2024-01-16T09:26:54.661Z,22.8
2024-01-16T09:28:54.255Z,17.4
2024-01-16T09:30:53.964Z,25.4
2024-01-16T09:32:53.695Z,9.9
2024-01-16T09:34:53.252Z,12.5
2024-01-16T09:36:52.817Z,14.3
2024-01-16T09:38:52.492Z,19.9
2024-01-16T09:40:52.081Z,10.6
2024-01-16T09:42:51.713Z,14.6
2024-01-16T09:44:51.631Z,12.3
2024-01-16T09:46:51.138Z,13.8
2024-01-16T09:48:50.770Z,9.2
2024-01-16T09:50:50.317Z,11.2
2024-01-16T09:52:49.892Z,9.8
2024-01-16T09:54:49.590Z,11.8
2024-01-16T09:56:49.276Z,16.8
2024-01-16T09:58:48.836Z,9
2024-01-16T10:00:48.538Z,12
2024-01-16T10:02:49.661Z,14.1
2024-01-16T10:04:47.779Z,14.7
2024-01-16T10:06:47.598Z,12.8
2024-01-16T10:08:47.086Z,16.9
2024-01-16T10:10:49.314Z,15.2
2024-01-16T10:12:46.367Z,12.4
2024-01-16T10:14:46.031Z,12.4
2024-01-16T10:16:45.661Z,15.4
2024-01-16T10:18:45.474Z,10
2024-01-16T10:20:45.011Z,12.2
2024-01-16T10:22:44.588Z,12.4
2024-01-16T10:24:44.300Z,12.2
2024-01-16T10:26:43.949Z,17.9
2024-01-16T10:28:43.601Z,14.5
2024-01-16T10:30:43.291Z,11.9
2024-01-16T10:32:43.327Z,17
2024-01-16T10:34:42.697Z,19.8
2024-01-16T10:36:42.118Z,25
2024-01-16T10:38:41.849Z,23
2024-01-16T10:40:41.468Z,20.5
2024-01-16T10:42:41.154Z,15.1
2024-01-16T10:44:40.828Z,14.4
2024-01-16T10:46:40.366Z,20.4
2024-01-16T10:48:40.095Z,17.4
2024-01-16T10:50:40.051Z,22.9
2024-01-16T10:52:39.384Z,16.5
2024-01-16T10:54:38.964Z,24.8
2024-01-16T10:56:38.710Z,27.5
2024-01-16T10:58:38.304Z,21
2024-01-16T11:00:37.952Z,22.8
2024-01-16T11:02:37.680Z,12.4
2024-01-16T11:04:37.259Z,28.8
2024-01-16T11:06:37.118Z,31.5
2024-01-16T11:08:36.613Z,30.9
2024-01-16T11:10:36.207Z,13
2024-01-16T11:12:35.834Z,14.3
2024-01-16T11:14:35.553Z,14.5
2024-01-16T11:16:36.122Z,21.2
2024-01-16T11:18:34.912Z,24.7
2024-01-16T11:20:54.927Z,17.4
2024-01-16T11:22:34.211Z,18.3
2024-01-16T11:24:33.766Z,16.7
2024-01-16T11:26:35.926Z,12.6
2024-01-16T11:28:33.084Z,9.6
2024-01-16T11:30:32.952Z,15.1
2024-01-16T11:32:33.520Z,15.2
2024-01-16T11:34:32.198Z,32.1
2024-01-16T11:36:31.772Z,15.8
2024-01-16T11:38:31.411Z,13.8
2024-01-16T11:40:31.020Z,17.4
2024-01-16T11:42:30.821Z,16.6
2024-01-16T11:44:30.367Z,19
2024-01-16T11:46:29.996Z,18.1
2024-01-16T11:48:29.817Z,26.1
2024-01-16T11:50:29.506Z,17.6
2024-01-16T11:52:28.941Z,20.3
2024-01-16T11:54:28.626Z,16.4
2024-01-16T11:56:37.401Z,22.3
2024-01-16T11:58:27.910Z,72.2
2024-01-16T12:00:27.605Z,23.3
2024-01-16T12:02:27.201Z,23.9
2024-01-16T12:04:26.888Z,19.3
2024-01-16T12:06:26.557Z,36.3
2024-01-16T12:08:26.180Z,22.6
2024-01-16T12:10:25.786Z,47.5
2024-01-16T12:12:25.564Z,47.9
2024-01-16T12:14:25.133Z,37.8
2024-01-16T12:16:24.711Z,33.9
2024-01-16T12:18:33.942Z,108.9
2024-01-16T12:20:24.233Z,76.5
2024-01-16T12:22:23.677Z,72.6
2024-01-16T12:24:23.323Z,27.3
2024-01-16T12:26:23.045Z,31.7
2024-01-16T12:30:24.044Z,79.3
2024-01-16T12:32:22.016Z,41
2024-01-16T12:34:21.637Z,35.1
2024-01-16T12:36:22.367Z,43.2
2024-01-16T12:38:20.860Z,35.1
2024-01-16T12:40:20.461Z,32.8
2024-01-16T12:42:21.669Z,34.7
2024-01-16T12:44:19.852Z,45.4
2024-01-16T12:46:19.369Z,55.7
2024-01-16T12:48:19.155Z,32.7
2024-01-16T12:50:18.912Z,67.6
2024-01-16T12:52:18.310Z,24.5
2024-01-16T12:54:18.048Z,24.7
2024-01-16T12:56:18.288Z,26.6
2024-01-16T12:58:17.224Z,26.4
2024-01-16T13:00:16.953Z,18.1
2024-01-16T13:02:16.600Z,22.5
2024-01-16T13:04:17.205Z,46.6
2024-01-16T13:06:15.871Z,27.2
2024-01-16T13:08:15.416Z,32
2024-01-16T13:10:15.066Z,31.2
2024-01-16T13:12:14.748Z,27.7
2024-01-16T13:14:14.385Z,31.1
2024-01-16T13:16:13.992Z,23.5
2024-01-16T13:18:13.726Z,24.7
2024-01-16T13:20:13.304Z,28.7
2024-01-16T13:22:12.953Z,35.9
2024-01-16T13:24:12.570Z,26.4
2024-01-16T13:26:12.382Z,25.6
2024-01-16T13:28:11.861Z,29.9
2024-01-16T13:30:11.707Z,23.3
2024-01-16T13:32:11.173Z,24.5
2024-01-16T13:34:10.964Z,28
2024-01-16T13:36:10.513Z,19.9
2024-01-16T13:38:10.088Z,20.5
2024-01-16T13:40:09.826Z,25
2024-01-16T13:42:09.441Z,25.3
2024-01-16T13:44:09.101Z,24.4
2024-01-16T13:46:08.772Z,25.9
2024-01-16T13:48:08.560Z,37.6
2024-01-16T13:50:08.124Z,34.1
2024-01-16T13:52:07.737Z,32.4
2024-01-16T13:54:07.377Z,27.8
2024-01-16T13:56:07.028Z,32.3
2024-01-16T13:58:06.718Z,29.5
2024-01-16T14:00:06.380Z,29.8
2024-01-16T14:02:06.102Z,27.1
2024-01-16T14:04:05.682Z,32.3
2024-01-16T14:06:05.537Z,35.6
2024-01-16T14:08:04.978Z,30
2024-01-16T14:10:06.699Z,34.6
2024-01-16T14:12:04.316Z,53.8
2024-01-16T14:14:03.992Z,53.6
2024-01-16T14:16:03.599Z,59.5
2024-01-16T14:18:03.441Z,66.4
2024-01-16T14:20:02.910Z,52.6
2024-01-16T14:22:02.627Z,54.3
2024-01-16T14:24:02.251Z,54.5
2024-01-16T14:26:02.697Z,72.8
2024-01-16T14:28:01.594Z,118.7
2024-01-16T14:30:01.274Z,88.6
2024-01-16T14:32:00.850Z,57.6
2024-01-16T14:34:00.620Z,59.3
2024-01-16T14:36:02.239Z,62.1
2024-01-16T14:37:59.770Z,82.1
2024-01-16T14:39:59.438Z,94.6
2024-01-16T14:41:59.135Z,140.9
2024-01-16T14:43:58.685Z,225.5
2024-01-16T14:45:58.400Z,175.8
2024-01-16T14:47:58.120Z,111.8
2024-01-16T14:49:57.719Z,160.4
2024-01-16T14:51:57.336Z,105.1
2024-01-16T14:53:56.951Z,81.3
2024-01-16T14:55:56.593Z,62.9
2024-01-16T14:57:57.227Z,71.2
2024-01-16T14:59:56.011Z,44.3
2024-01-16T15:01:55.522Z,57.1
2024-01-16T15:03:55.171Z,60.9
2024-01-16T15:05:54.990Z,82.4
2024-01-16T15:07:54.419Z,119.2
2024-01-16T15:09:54.166Z,106.9
2024-01-16T15:11:53.810Z,89.8
2024-01-16T15:13:53.351Z,42.4
2024-01-16T15:15:52.966Z,42
2024-01-16T15:17:52.609Z,44.8
2024-01-16T15:19:52.297Z,53.3
2024-01-16T15:21:51.800Z,49.8
2024-01-16T15:23:51.553Z,55.4
2024-01-16T15:25:51.159Z,56.5
2024-01-16T15:27:50.715Z,59.4
2024-01-16T15:29:50.347Z,68.3
2024-01-16T15:31:50.008Z,60.2
2024-01-16T15:33:49.708Z,58.3
2024-01-16T15:35:49.221Z,72
2024-01-16T15:37:48.946Z,174.1
2024-01-16T15:39:48.446Z,171.6
2024-01-16T15:41:48.157Z,135.1
2024-01-16T15:43:47.703Z,180.7
2024-01-16T15:45:47.351Z,174.2
2024-01-16T15:47:47.036Z,87.9
2024-01-16T15:49:46.712Z,64.8
2024-01-16T15:51:46.237Z,132.6
2024-01-16T15:53:46.925Z,111.6
2024-01-16T15:55:45.492Z,178
2024-01-16T15:57:45.172Z,38.4
2024-01-16T15:59:44.802Z,89
2024-01-16T16:01:44.416Z,56
2024-01-16T16:03:44.001Z,118.3
2024-01-16T16:05:43.748Z,47.2
2024-01-16T16:07:43.276Z,170.3
2024-01-16T16:09:42.876Z,101.5
2024-01-16T16:11:42.521Z,118.3
2024-01-16T16:13:42.110Z,163.1
2024-01-16T16:15:41.745Z,80.7
2024-01-16T16:17:41.590Z,107.7
2024-01-16T16:19:41.076Z,340.8
2024-01-16T16:21:40.661Z,152.8
2024-01-16T16:23:40.270Z,171.7
2024-01-16T16:25:39.872Z,341.2
2024-01-16T16:27:39.530Z,77.3
2024-01-16T16:29:39.209Z,54.4
2024-01-16T16:31:38.741Z,50
2024-01-16T16:33:38.549Z,55.1
2024-01-16T16:35:38.056Z,52.6
2024-01-16T16:37:37.607Z,61.7
2024-01-16T16:39:37.259Z,62.1
2024-01-16T16:41:36.918Z,50.1
2024-01-16T16:43:36.468Z,53.4
2024-01-16T16:45:36.136Z,57
2024-01-16T16:47:35.834Z,48
2024-01-16T16:49:35.416Z,42.2
2024-01-16T16:51:34.998Z,47.7
2024-01-16T16:53:41.674Z,49.6
2024-01-16T16:55:34.214Z,62.5
2024-01-16T16:57:33.815Z,68.2
2024-01-16T16:59:33.518Z,68.8
2024-01-16T17:01:33.102Z,47.9
2024-01-16T17:03:32.705Z,45.8
2024-01-16T17:05:32.494Z,59.6
2024-01-16T17:07:32.014Z,48.2
2024-01-16T17:09:31.569Z,49.2
2024-01-16T17:11:31.238Z,55.2
2024-01-16T17:13:30.829Z,41.7
2024-01-16T17:15:30.451Z,67
2024-01-16T17:17:30.341Z,55.8
2024-01-16T17:19:29.758Z,42.7
2024-01-16T17:21:29.278Z,45.3
2024-01-16T17:23:29.029Z,65.3
2024-01-16T17:25:28.526Z,41
2024-01-16T17:27:28.191Z,41.4
2024-01-16T17:29:27.818Z,38.9
2024-01-16T17:31:27.403Z,51.4
2024-01-16T17:33:27.255Z,56.6
2024-01-16T17:35:26.757Z,62
2024-01-16T17:37:26.358Z,62.9
2024-01-16T17:39:25.922Z,68.1
2024-01-16T17:41:25.591Z,77.3
2024-01-16T17:43:25.211Z,81.3
2024-01-16T17:45:24.821Z,68.4
2024-01-16T17:47:24.478Z,73.1
2024-01-16T17:49:24.155Z,59.2
2024-01-16T17:51:23.716Z,59.3
2024-01-16T17:53:23.351Z,72.9
2024-01-16T17:55:22.959Z,109
2024-01-16T17:57:22.561Z,123.8
2024-01-16T17:59:22.262Z,73.8
2024-01-16T18:01:21.848Z,83.7
2024-01-16T18:03:32.098Z,74.4
2024-01-16T18:05:21.155Z,63.8
2024-01-16T18:07:20.690Z,65.9
2024-01-16T18:09:20.433Z,65.8
2024-01-16T18:11:20.015Z,60.6
2024-01-16T18:13:19.578Z,71.1
2024-01-16T18:15:19.220Z,66.4
2024-01-16T18:17:18.942Z,55.2
2024-01-16T18:19:18.574Z,52.1
2024-01-16T18:21:18.100Z,47
2024-01-16T18:23:17.746Z,61.4
2024-01-16T18:25:17.393Z,64.5
2024-01-16T18:27:17.001Z,50
2024-01-16T18:29:16.670Z,77.9
2024-01-16T18:31:18.195Z,46.2
2024-01-16T18:33:16.035Z,54.4
2024-01-16T18:35:15.547Z,52.7
2024-01-16T18:37:15.153Z,42.8
2024-01-16T18:39:14.780Z,40.6
2024-01-16T18:41:14.461Z,71.5
2024-01-16T18:43:14.053Z,42.7
2024-01-16T18:45:13.659Z,77.7
2024-01-16T18:47:13.263Z,107.2
2024-01-16T18:49:13.023Z,420.4
2024-01-16T18:51:12.553Z,112.6
2024-01-16T18:53:12.176Z,185.9
2024-01-16T18:55:11.801Z,51.3
2024-01-16T18:57:11.422Z,28.6
2024-01-16T18:59:11.051Z,24
2024-01-16T19:01:10.709Z,23.3
2024-01-16T19:03:10.425Z,30.1
2024-01-16T19:05:09.940Z,39.6
2024-01-16T19:07:09.510Z,54.5
2024-01-16T19:09:09.131Z,78.1
2024-01-16T19:11:08.741Z,104.7
2024-01-16T19:13:08.335Z,128.6
2024-01-16T19:15:08.143Z,117
2024-01-16T19:17:07.568Z,122.9
2024-01-16T19:19:07.277Z,127.6
2024-01-16T19:21:06.889Z,103.9
2024-01-16T19:23:06.433Z,189.9
2024-01-16T19:25:06.039Z,82.2
2024-01-16T19:27:05.799Z,74.5
2024-01-16T19:29:05.294Z,81.6
2024-01-16T19:31:04.957Z,63.9
2024-01-16T19:33:04.574Z,58.7
2024-01-16T19:35:04.076Z,245.4
2024-01-16T19:37:03.653Z,107
2024-01-16T19:39:03.382Z,72.1
2024-01-16T19:41:02.951Z,57
2024-01-16T19:43:02.515Z,69.7
2024-01-16T19:45:02.229Z,82.8
2024-01-16T19:47:01.697Z,71
2024-01-16T19:49:01.503Z,59.7
2024-01-16T19:51:01.247Z,51.4
2024-01-16T19:53:00.626Z,43.7
2024-01-16T19:55:00.211Z,46.2
2024-01-16T19:56:59.890Z,31
2024-01-16T19:58:59.431Z,34.1
2024-01-16T20:00:59.115Z,33.6
2024-01-16T20:02:58.755Z,56.8
2024-01-16T20:04:58.309Z,98.3
2024-01-16T20:06:57.896Z,135
2024-01-16T20:08:57.498Z,122.9
2024-01-16T20:10:57.049Z,69
2024-01-16T20:12:56.665Z,27.3
2024-01-16T20:14:56.520Z,30.9
2024-01-16T20:16:55.881Z,29.4
2024-01-16T20:18:55.660Z,33.3
2024-01-16T20:20:55.121Z,31.7
2024-01-16T20:22:54.694Z,36.1
2024-01-16T20:24:54.635Z,31.7
2024-01-16T20:26:54.002Z,40.3
2024-01-16T20:28:53.581Z,45.4
2024-01-16T20:30:53.229Z,45.8
2024-01-16T20:32:55.901Z,35.9
2024-01-16T20:34:52.539Z,33.7
2024-01-16T20:36:51.992Z,29.2
2024-01-16T20:38:51.648Z,34.6
2024-01-16T20:40:51.233Z,34.8
2024-01-16T20:42:50.822Z,27.4
2024-01-16T20:44:50.502Z,31
2024-01-16T20:46:50.064Z,29.9
2024-01-16T20:48:49.806Z,33.8
2024-01-16T20:50:49.263Z,27.8
2024-01-16T20:52:48.936Z,32.8
2024-01-16T20:54:48.491Z,37
2024-01-16T20:56:48.204Z,86.8
2024-01-16T20:58:47.756Z,60.1
2024-01-16T21:00:47.375Z,81.9
2024-01-16T21:02:47.036Z,67.9
2024-01-16T21:04:46.617Z,107.7
2024-01-16T21:06:46.327Z,76.6
2024-01-16T21:08:45.837Z,71.3
2024-01-16T21:10:45.412Z,72.6
2024-01-16T21:12:45.048Z,67.8
2024-01-16T21:14:44.628Z,53.1
2024-01-16T21:16:44.207Z,37.5
2024-01-16T21:18:44.022Z,33.1
2024-01-16T21:20:43.427Z,38.6
2024-01-16T21:22:42.975Z,37
2024-01-16T21:24:42.622Z,55.9
2024-01-16T21:26:42.293Z,50.3
2024-01-16T21:28:41.858Z,45.1
2024-01-16T21:30:41.467Z,36
2024-01-16T21:32:41.124Z,34.8
2024-01-16T21:34:40.675Z,35.3
2024-01-16T21:36:40.252Z,32.2
2024-01-16T21:38:39.945Z,30.5
2024-01-16T21:40:39.531Z,37.3
2024-01-16T21:42:39.170Z,34
2024-01-16T21:44:38.716Z,35.6
2024-01-16T21:46:38.274Z,39
2024-01-16T21:48:37.965Z,38.2
2024-01-16T21:50:38.538Z,39.2
2024-01-16T21:52:37.066Z,36.1
2024-01-16T21:54:36.656Z,37.5
2024-01-16T21:56:36.288Z,38.7
2024-01-16T21:58:35.874Z,39.1
2024-01-16T22:00:35.591Z,38.1
2024-01-16T22:02:35.199Z,38.8
2024-01-16T22:04:34.728Z,45.5
2024-01-16T22:06:34.348Z,40.7
2024-01-16T22:08:33.977Z,53
2024-01-16T22:10:33.558Z,46.7
2024-01-16T22:12:33.114Z,51.6
2024-01-16T22:14:32.754Z,47.2
2024-01-16T22:16:32.370Z,58.2
2024-01-16T22:18:32.058Z,55.8
2024-01-16T22:20:31.570Z,42.1
2024-01-16T22:22:31.142Z,49.7
2024-01-16T22:24:30.747Z,59.6
2024-01-16T22:26:30.377Z,44.3
2024-01-16T22:28:29.949Z,41
2024-01-16T22:30:29.593Z,36
2024-01-16T22:32:29.179Z,36
2024-01-16T22:34:28.831Z,28
2024-01-16T22:36:28.383Z,32.3
2024-01-16T22:38:28.027Z,38.4
2024-01-16T22:40:27.576Z,48.1
2024-01-16T22:42:27.152Z,55.3
2024-01-16T22:44:26.698Z,52.8
2024-01-16T22:46:26.359Z,49.8
2024-01-16T22:48:25.995Z,41.2
2024-01-16T22:50:25.534Z,36.1
2024-01-16T22:52:25.124Z,38.1
2024-01-16T22:54:24.699Z,35.4
2024-01-16T22:56:24.397Z,38
2024-01-16T22:58:23.910Z,33.4
2024-01-16T23:00:23.554Z,33.7
2024-01-16T23:02:23.162Z,33.1
2024-01-16T23:04:22.802Z,26.9
2024-01-16T23:06:22.564Z,29.4
2024-01-16T23:08:22.050Z,33.2
2024-01-16T23:10:21.640Z,33.8
2024-01-16T23:12:21.222Z,27.8
2024-01-16T23:14:20.849Z,32.1
2024-01-16T23:16:20.478Z,26.4
2024-01-16T23:18:20.239Z,30.8
2024-01-16T23:20:19.705Z,24.3
2024-01-16T23:22:19.254Z,24.8
2024-01-16T23:24:18.835Z,20.9
2024-01-16T23:28:18.059Z,23.7
2024-01-16T23:30:17.716Z,26.1
2024-01-16T23:32:17.208Z,17.2
2024-01-16T23:34:16.870Z,22.5
2024-01-16T23:36:16.493Z,22.7
2024-01-16T23:38:16.023Z,23.7
2024-01-16T23:40:15.650Z,17.6
2024-01-16T23:42:15.257Z,21.4
2024-01-16T23:44:14.813Z,22.5
2024-01-16T23:46:14.396Z,23.1
2024-01-16T23:48:14.185Z,24.7
2024-01-16T23:50:13.621Z,26.3
2024-01-16T23:52:13.228Z,22.9
2024-01-16T23:54:12.825Z,24.9
2024-01-16T23:56:12.451Z,25.6
2024-01-16T23:58:11.969Z,25.4
